There are multiple Weather-warnings   Click here for more information


Meteo18 Weather Cam more information Meteo18 Weather Cam


warning for Thunderstorms more information blitzortung!


Rain radar more information rain snow radar


Visit our other weather sites:

Template documentation
and downloads

And another site



Weather Underground History page Text

Daily Summary for April 8, 2017 Units:  Both    English   Metric
« Previous Day
Next Day »
Daily Weekly Monthly Yearly Custom
  High: Low: Average:
Temperature: 71.6 °F /  22.0 °C 44.6 °F /  7.0 °C 58.3 °F /  14.6 °C
Dew Point: 50 °F /  10.0 °C 41.2 °F /  5.1 °C 46.2 °F /  7.9 °C
Humidity: 89 % 42 % 67 %
Wind Speed: 7 mph /  11.3 km/h - 2.1 mph /  3.3 km/h
Wind Gust: 12 mph /  19.3 km/h - -
Wind:- - ESE
Pressure: 30.3 in /  1024.9 hPa 30.2 in /  1021.6 hPa -
Precipitation: 0 in /  0.0 mm    
Historical Graphs
 
 
Tabular Data for April 8, 2017
Time Temperature Dew Point Pressure Wind Wind Speed Wind Gust Humidity Rainfall Rate (Hourly)
00:02 51.1 °F /  10.6 °C 43.5 °F /  6.4 °C 30.3 in /  1024.9 hPa WNW 1 mph /  1.6 km/h 4 mph /  6.4 km/h 75 % 0 in /  0.0 mm
00:07 50.9 °F /  10.5 °C 43.5 °F /  6.4 °C 30.3 in /  1024.9 hPa Calm   4 mph /  6.4 km/h 76 % 0 in /  0.0 mm
00:12 50.7 °F /  10.4 °C 43.5 °F /  6.4 °C 30.3 in /  1024.9 hPa NNW 1 mph /  1.6 km/h 2 mph /  3.2 km/h 76 % 0 in /  0.0 mm
00:17 50.7 °F /  10.4 °C 43.5 °F /  6.4 °C 30.3 in /  1024.9 hPa NNW 1 mph /  1.6 km/h 2 mph /  3.2 km/h 76 % 0 in /  0.0 mm
00:22 50.7 °F /  10.4 °C 43.5 °F /  6.4 °C 30.3 in /  1024.9 hPa NNE 1 mph /  1.6 km/h 4 mph /  6.4 km/h 76 % 0 in /  0.0 mm
00:27 50.5 °F /  10.3 °C 43.5 °F /  6.4 °C 30.3 in /  1024.9 hPa North 2 mph /  3.2 km/h 4 mph /  6.4 km/h 77 % 0 in /  0.0 mm
00:32 50.5 °F /  10.3 °C 43.5 °F /  6.4 °C 30.3 in /  1024.9 hPa NNE 3 mph /  4.8 km/h 4 mph /  6.4 km/h 77 % 0 in /  0.0 mm
00:37 50.4 °F /  10.2 °C 43.3 °F /  6.3 °C 30.3 in /  1024.9 hPa North 2 mph /  3.2 km/h 5 mph /  8.0 km/h 77 % 0 in /  0.0 mm
00:42 50.4 °F /  10.2 °C 43.3 °F /  6.3 °C 30.3 in /  1024.9 hPa North 1 mph /  1.6 km/h 5 mph /  8.0 km/h 77 % 0 in /  0.0 mm
00:47 50.2 °F /  10.1 °C 43.5 °F /  6.4 °C 30.3 in /  1024.9 hPa NNW 1 mph /  1.6 km/h 5 mph /  8.0 km/h 78 % 0 in /  0.0 mm
00:52 50.2 °F /  10.1 °C 43.5 °F /  6.4 °C 30.3 in /  1024.9 hPa North 1 mph /  1.6 km/h 4 mph /  6.4 km/h 78 % 0 in /  0.0 mm
00:57 50 °F /  10.0 °C 43.3 °F /  6.3 °C 30.3 in /  1024.9 hPa NNW 1 mph /  1.6 km/h 4 mph /  6.4 km/h 78 % 0 in /  0.0 mm
01:02 49.8 °F /  9.9 °C 43.2 °F /  6.2 °C 30.3 in /  1024.9 hPa NNW 2 mph /  3.2 km/h 4 mph /  6.4 km/h 78 % 0 in /  0.0 mm
01:07 49.6 °F /  9.8 °C 43.3 °F /  6.3 °C 30.3 in /  1024.9 hPa North 2 mph /  3.2 km/h 4 mph /  6.4 km/h 79 % 0 in /  0.0 mm
01:12 49.6 °F /  9.8 °C 43.3 °F /  6.3 °C 30.3 in /  1024.9 hPa Calm   4 mph /  6.4 km/h 79 % 0 in /  0.0 mm
01:17 49.6 °F /  9.8 °C 43.3 °F /  6.3 °C 30.3 in /  1024.9 hPa NNW 2 mph /  3.2 km/h 4 mph /  6.4 km/h 79 % 0 in /  0.0 mm
01:22 49.5 °F /  9.7 °C 43.2 °F /  6.2 °C 30.3 in /  1024.9 hPa NNW 1 mph /  1.6 km/h 5 mph /  8.0 km/h 79 % 0 in /  0.0 mm
01:27 49.5 °F /  9.7 °C 43.2 °F /  6.2 °C 30.3 in /  1024.9 hPa North 3 mph /  4.8 km/h 5 mph /  8.0 km/h 79 % 0 in /  0.0 mm
01:32 49.3 °F /  9.6 °C 43.3 °F /  6.3 °C 30.3 in /  1024.9 hPa NNW 1 mph /  1.6 km/h 4 mph /  6.4 km/h 80 % 0 in /  0.0 mm
01:37 49.1 °F /  9.5 °C 43.2 °F /  6.2 °C 30.3 in /  1024.9 hPa NE 1 mph /  1.6 km/h 4 mph /  6.4 km/h 80 % 0 in /  0.0 mm
01:42 49.1 °F /  9.5 °C 43.2 °F /  6.2 °C 30.3 in /  1024.9 hPa Calm   4 mph /  6.4 km/h 80 % 0 in /  0.0 mm
01:52 48.7 °F /  9.3 °C 42.8 °F /  6.0 °C 30.3 in /  1024.9 hPa Calm   3 mph /  4.8 km/h 80 % 0 in /  0.0 mm
01:57 48.6 °F /  9.2 °C 43 °F /  6.1 °C 30.3 in /  1024.9 hPa Calm   4 mph /  6.4 km/h 81 % 0 in /  0.0 mm
02:02 48.6 °F /  9.2 °C 43 °F /  6.1 °C 30.3 in /  1024.6 hPa North 2 mph /  3.2 km/h 4 mph /  6.4 km/h 81 % 0 in /  0.0 mm
02:07 48.7 °F /  9.3 °C 43.2 °F /  6.2 °C 30.3 in /  1024.6 hPa Calm   4 mph /  6.4 km/h 81 % 0 in /  0.0 mm
02:12 48.6 °F /  9.2 °C 43 °F /  6.1 °C 30.3 in /  1024.6 hPa NNW 1 mph /  1.6 km/h 4 mph /  6.4 km/h 81 % 0 in /  0.0 mm
02:17 48.6 °F /  9.2 °C 43 °F /  6.1 °C 30.3 in /  1024.6 hPa Calm   4 mph /  6.4 km/h 81 % 0 in /  0.0 mm
02:22 48.6 °F /  9.2 °C 43 °F /  6.1 °C 30.3 in /  1024.6 hPa North 1 mph /  1.6 km/h 4 mph /  6.4 km/h 81 % 0 in /  0.0 mm
02:32 48.7 °F /  9.3 °C 43.2 °F /  6.2 °C 30.3 in /  1024.3 hPa Calm   4 mph /  6.4 km/h 81 % 0 in /  0.0 mm
02:37 48.9 °F /  9.4 °C 43.3 °F /  6.3 °C 30.3 in /  1024.3 hPa North 2 mph /  3.2 km/h 5 mph /  8.0 km/h 81 % 0 in /  0.0 mm
02:42 48.9 °F /  9.4 °C 43.3 °F /  6.3 °C 30.3 in /  1024.3 hPa NNW 4 mph /  6.4 km/h 6 mph /  9.7 km/h 81 % 0 in /  0.0 mm
02:47 48.9 °F /  9.4 °C 43.3 °F /  6.3 °C 30.3 in /  1024.3 hPa North 2 mph /  3.2 km/h 6 mph /  9.7 km/h 81 % 0 in /  0.0 mm
02:52 48.9 °F /  9.4 °C 43.3 °F /  6.3 °C 30.3 in /  1024.3 hPa North 2 mph /  3.2 km/h 7 mph /  11.3 km/h 81 % 0 in /  0.0 mm
02:57 48.9 °F /  9.4 °C 43.3 °F /  6.3 °C 30.3 in /  1024.3 hPa NNW 2 mph /  3.2 km/h 7 mph /  11.3 km/h 81 % 0 in /  0.0 mm
03:02 48.7 °F /  9.3 °C 43.2 °F /  6.2 °C 30.3 in /  1024.3 hPa NW 1 mph /  1.6 km/h 7 mph /  11.3 km/h 81 % 0 in /  0.0 mm
03:07 48.6 °F /  9.2 °C 43.3 °F /  6.3 °C 30.3 in /  1024.3 hPa Calm   6 mph /  9.7 km/h 82 % 0 in /  0.0 mm
03:12 48 °F /  8.9 °C 42.4 °F /  5.8 °C 30.3 in /  1024.3 hPa Calm   4 mph /  6.4 km/h 81 % 0 in /  0.0 mm
03:17 47.8 °F /  8.8 °C 43 °F /  6.1 °C 30.3 in /  1024.3 hPa Calm   4 mph /  6.4 km/h 83 % 0 in /  0.0 mm
03:22 47.8 °F /  8.8 °C 43 °F /  6.1 °C 30.3 in /  1024.3 hPa North 1 mph /  1.6 km/h 3 mph /  4.8 km/h 83 % 0 in /  0.0 mm
03:27 48 °F /  8.9 °C 43.2 °F /  6.2 °C 30.3 in /  1024.3 hPa Calm   2 mph /  3.2 km/h 83 % 0 in /  0.0 mm
03:32 47.8 °F /  8.8 °C 43 °F /  6.1 °C 30.3 in /  1024.3 hPa NNE 2 mph /  3.2 km/h 3 mph /  4.8 km/h 83 % 0 in /  0.0 mm
03:37 47.8 °F /  8.8 °C 43 °F /  6.1 °C 30.3 in /  1024.3 hPa NNE 3 mph /  4.8 km/h 3 mph /  4.8 km/h 83 % 0 in /  0.0 mm
03:42 48.6 °F /  9.2 °C 43.7 °F /  6.5 °C 30.3 in /  1024.3 hPa NNE 3 mph /  4.8 km/h 5 mph /  8.0 km/h 83 % 0 in /  0.0 mm
03:47 48.9 °F /  9.4 °C 43.7 °F /  6.5 °C 30.3 in /  1024.3 hPa ENE 1 mph /  1.6 km/h 5 mph /  8.0 km/h 82 % 0 in /  0.0 mm
03:52 48.9 °F /  9.4 °C 43.3 °F /  6.3 °C 30.3 in /  1024.3 hPa Calm   5 mph /  8.0 km/h 81 % 0 in /  0.0 mm
03:57 48.6 °F /  9.2 °C 43 °F /  6.1 °C 30.3 in /  1024.3 hPa ENE 1 mph /  1.6 km/h 4 mph /  6.4 km/h 81 % 0 in /  0.0 mm
04:02 48.4 °F /  9.1 °C 43.2 °F /  6.2 °C 30.2 in /  1023.9 hPa Calm   2 mph /  3.2 km/h 82 % 0 in /  0.0 mm
04:07 48 °F /  8.9 °C 42.8 °F /  6.0 °C 30.2 in /  1023.9 hPa NNE 1 mph /  1.6 km/h 1 mph /  1.6 km/h 82 % 0 in /  0.0 mm
04:12 47.7 °F /  8.7 °C 42.4 °F /  5.8 °C 30.2 in /  1023.9 hPa Calm   1 mph /  1.6 km/h 82 % 0 in /  0.0 mm
04:17 46.9 °F /  8.3 °C 42.1 °F /  5.6 °C 30.2 in /  1023.9 hPa WNW 1 mph /  1.6 km/h 1 mph /  1.6 km/h 83 % 0 in /  0.0 mm
04:22 46.9 °F /  8.3 °C 42.6 °F /  5.9 °C 30.2 in /  1023.9 hPa NW 2 mph /  3.2 km/h 2 mph /  3.2 km/h 85 % 0 in /  0.0 mm
04:27 47.5 °F /  8.6 °C 43.2 °F /  6.2 °C 30.2 in /  1023.9 hPa Calm   2 mph /  3.2 km/h 85 % 0 in /  0.0 mm
04:32 47.8 °F /  8.8 °C 43.2 °F /  6.2 °C 30.2 in /  1023.9 hPa Calm   2 mph /  3.2 km/h 84 % 0 in /  0.0 mm
04:37 47.7 °F /  8.7 °C 42.8 °F /  6.0 °C 30.2 in /  1023.9 hPa Calm   2 mph /  3.2 km/h 83 % 0 in /  0.0 mm
04:42 47.7 °F /  8.7 °C 43 °F /  6.1 °C 30.2 in /  1023.9 hPa Calm   1 mph /  1.6 km/h 84 % 0 in /  0.0 mm
04:47 47.8 °F /  8.8 °C 43.2 °F /  6.2 °C 30.2 in /  1023.9 hPa NNW 1 mph /  1.6 km/h 1 mph /  1.6 km/h 84 % 0 in /  0.0 mm
04:52 47.8 °F /  8.8 °C 43 °F /  6.1 °C 30.2 in /  1023.9 hPa NNW 1 mph /  1.6 km/h 2 mph /  3.2 km/h 83 % 0 in /  0.0 mm
04:57 48 °F /  8.9 °C 43.2 °F /  6.2 °C 30.2 in /  1023.9 hPa North 1 mph /  1.6 km/h 2 mph /  3.2 km/h 83 % 0 in /  0.0 mm
05:02 48 °F /  8.9 °C 43.2 °F /  6.2 °C 30.2 in /  1023.9 hPa NNW 1 mph /  1.6 km/h 2 mph /  3.2 km/h 83 % 0 in /  0.0 mm
05:07 47.7 °F /  8.7 °C 42.4 °F /  5.8 °C 30.2 in /  1023.9 hPa NNW 1 mph /  1.6 km/h 3 mph /  4.8 km/h 82 % 0 in /  0.0 mm
05:12 47.5 °F /  8.6 °C 42.6 °F /  5.9 °C 30.2 in /  1023.9 hPa Calm   3 mph /  4.8 km/h 83 % 0 in /  0.0 mm
05:17 47.3 °F /  8.5 °C 42.4 °F /  5.8 °C 30.2 in /  1023.6 hPa NW 1 mph /  1.6 km/h 3 mph /  4.8 km/h 83 % 0 in /  0.0 mm
05:22 46.9 °F /  8.3 °C 42.4 °F /  5.8 °C 30.2 in /  1023.9 hPa NNW 1 mph /  1.6 km/h 3 mph /  4.8 km/h 84 % 0 in /  0.0 mm
05:42 46.2 °F /  7.9 °C 41.9 °F /  5.5 °C 30.2 in /  1023.6 hPa Calm   3 mph /  4.8 km/h 85 % 0 in /  0.0 mm
05:47 46 °F /  7.8 °C 42.1 °F /  5.6 °C 30.2 in /  1023.6 hPa NNW 2 mph /  3.2 km/h 3 mph /  4.8 km/h 86 % 0 in /  0.0 mm
05:52 46 °F /  7.8 °C 42.1 °F /  5.6 °C 30.2 in /  1023.6 hPa NNW 1 mph /  1.6 km/h 3 mph /  4.8 km/h 86 % 0 in /  0.0 mm
05:57 46 °F /  7.8 °C 42.1 °F /  5.6 °C 30.2 in /  1023.6 hPa North 1 mph /  1.6 km/h 2 mph /  3.2 km/h 86 % 0 in /  0.0 mm
06:02 46 °F /  7.8 °C 42.1 °F /  5.6 °C 30.2 in /  1023.6 hPa NNE 1 mph /  1.6 km/h 2 mph /  3.2 km/h 86 % 0 in /  0.0 mm
06:12 46 °F /  7.8 °C 42.1 °F /  5.6 °C 30.2 in /  1023.6 hPa North 1 mph /  1.6 km/h 3 mph /  4.8 km/h 86 % 0 in /  0.0 mm
06:17 45.9 °F /  7.7 °C 41.9 °F /  5.5 °C 30.2 in /  1023.6 hPa Calm   3 mph /  4.8 km/h 86 % 0 in /  0.0 mm
06:22 45.9 °F /  7.7 °C 41.9 °F /  5.5 °C 30.2 in /  1023.6 hPa NNW 3 mph /  4.8 km/h 3 mph /  4.8 km/h 86 % 0 in /  0.0 mm
06:32 45.9 °F /  7.7 °C 42.3 °F /  5.7 °C 30.2 in /  1023.6 hPa North 1 mph /  1.6 km/h 3 mph /  4.8 km/h 87 % 0 in /  0.0 mm
06:37 45.9 °F /  7.7 °C 42.3 °F /  5.7 °C 30.2 in /  1023.6 hPa Calm   3 mph /  4.8 km/h 87 % 0 in /  0.0 mm
06:42 45.9 °F /  7.7 °C 42.3 °F /  5.7 °C 30.2 in /  1023.6 hPa NNW 1 mph /  1.6 km/h 3 mph /  4.8 km/h 87 % 0 in /  0.0 mm
06:47 45.9 °F /  7.7 °C 42.3 °F /  5.7 °C 30.2 in /  1023.6 hPa Calm   3 mph /  4.8 km/h 87 % 0 in /  0.0 mm
06:52 45.9 °F /  7.7 °C 42.3 °F /  5.7 °C 30.2 in /  1023.6 hPa North 2 mph /  3.2 km/h 3 mph /  4.8 km/h 87 % 0 in /  0.0 mm
06:57 45.9 °F /  7.7 °C 42.3 °F /  5.7 °C 30.2 in /  1023.6 hPa North 1 mph /  1.6 km/h 2 mph /  3.2 km/h 87 % 0 in /  0.0 mm
07:02 45.7 °F /  7.6 °C 42.1 °F /  5.6 °C 30.2 in /  1023.6 hPa Calm   2 mph /  3.2 km/h 87 % 0 in /  0.0 mm
07:12 45.5 °F /  7.5 °C 41.9 °F /  5.5 °C 30.2 in /  1023.6 hPa Calm   2 mph /  3.2 km/h 87 % 0 in /  0.0 mm
07:17 45.1 °F /  7.3 °C 41.5 °F /  5.3 °C 30.2 in /  1023.6 hPa Calm   2 mph /  3.2 km/h 87 % 0 in /  0.0 mm
07:22 44.8 °F /  7.1 °C 41.2 °F /  5.1 °C 30.2 in /  1023.6 hPa Calm   2 mph /  3.2 km/h 87 % 0 in /  0.0 mm
07:27 44.8 °F /  7.1 °C 41.4 °F /  5.2 °C 30.2 in /  1023.6 hPa Calm   1 mph /  1.6 km/h 88 % 0 in /  0.0 mm
07:32 44.6 °F /  7.0 °C 41.2 °F /  5.1 °C 30.2 in /  1023.6 hPa Calm   1 mph /  1.6 km/h 88 % 0 in /  0.0 mm
07:37 44.8 °F /  7.1 °C 41.7 °F /  5.4 °C 30.2 in /  1023.6 hPa Calm     89 % 0 in /  0.0 mm
07:42 45 °F /  7.2 °C 41.9 °F /  5.5 °C 30.2 in /  1023.6 hPa Calm     89 % 0 in /  0.0 mm
07:47 45.1 °F /  7.3 °C 42.1 °F /  5.6 °C 30.2 in /  1023.9 hPa Calm     89 % 0 in /  0.0 mm
07:52 45.5 °F /  7.5 °C 42.1 °F /  5.6 °C 30.2 in /  1023.9 hPa Calm     88 % 0 in /  0.0 mm
07:57 46 °F /  7.8 °C 42.6 °F /  5.9 °C 30.2 in /  1023.9 hPa NE 3 mph /  4.8 km/h 6 mph /  9.7 km/h 88 % 0 in /  0.0 mm
08:02 46.8 °F /  8.2 °C 43.2 °F /  6.2 °C 30.2 in /  1023.9 hPa NE 1 mph /  1.6 km/h 6 mph /  9.7 km/h 87 % 0 in /  0.0 mm
08:12 47.8 °F /  8.8 °C 43.5 °F /  6.4 °C 30.2 in /  1023.9 hPa NNE 2 mph /  3.2 km/h 6 mph /  9.7 km/h 85 % 0 in /  0.0 mm
08:17 48.2 °F /  9.0 °C 43.5 °F /  6.4 °C 30.2 in /  1023.9 hPa NE 3 mph /  4.8 km/h 7 mph /  11.3 km/h 84 % 0 in /  0.0 mm
08:22 48.6 °F /  9.2 °C 43.9 °F /  6.6 °C 30.2 in /  1023.9 hPa NNE 3 mph /  4.8 km/h 7 mph /  11.3 km/h 84 % 0 in /  0.0 mm
08:27 48.9 °F /  9.4 °C 44.1 °F /  6.7 °C 30.2 in /  1023.9 hPa Calm   7 mph /  11.3 km/h 83 % 0 in /  0.0 mm
08:32 49.3 °F /  9.6 °C 44.4 °F /  6.9 °C 30.2 in /  1023.9 hPa NNE 2 mph /  3.2 km/h 7 mph /  11.3 km/h 83 % 0 in /  0.0 mm
08:37 49.3 °F /  9.6 °C 44.1 °F /  6.7 °C 30.2 in /  1023.9 hPa NE 2 mph /  3.2 km/h 5 mph /  8.0 km/h 82 % 0 in /  0.0 mm
08:42 49.5 °F /  9.7 °C 44.2 °F /  6.8 °C 30.2 in /  1023.9 hPa NNE 4 mph /  6.4 km/h 6 mph /  9.7 km/h 82 % 0 in /  0.0 mm
08:47 49.5 °F /  9.7 °C 44.2 °F /  6.8 °C 30.3 in /  1024.3 hPa ENE 4 mph /  6.4 km/h 6 mph /  9.7 km/h 82 % 0 in /  0.0 mm
08:52 49.8 °F /  9.9 °C 44.6 °F /  7.0 °C 30.2 in /  1023.9 hPa NE 3 mph /  4.8 km/h 7 mph /  11.3 km/h 82 % 0 in /  0.0 mm
08:57 50.4 °F /  10.2 °C 45.1 °F /  7.3 °C 30.3 in /  1024.3 hPa NE 4 mph /  6.4 km/h 7 mph /  11.3 km/h 82 % 0 in /  0.0 mm
09:02 50.5 °F /  10.3 °C 45.3 °F /  7.4 °C 30.3 in /  1024.3 hPa NE 2 mph /  3.2 km/h 7 mph /  11.3 km/h 82 % 0 in /  0.0 mm
09:07 51.1 °F /  10.6 °C 45.9 °F /  7.7 °C 30.3 in /  1024.3 hPa NNE 2 mph /  3.2 km/h 6 mph /  9.7 km/h 82 % 0 in /  0.0 mm
09:12 51.3 °F /  10.7 °C 45.3 °F /  7.4 °C 30.3 in /  1024.3 hPa NE 4 mph /  6.4 km/h 8 mph /  12.9 km/h 80 % 0 in /  0.0 mm
09:17 51.4 °F /  10.8 °C 45.5 °F /  7.5 °C 30.3 in /  1024.3 hPa NE 1 mph /  1.6 km/h 8 mph /  12.9 km/h 80 % 0 in /  0.0 mm
09:22 51.6 °F /  10.9 °C 45.7 °F /  7.6 °C 30.3 in /  1024.3 hPa North 3 mph /  4.8 km/h 8 mph /  12.9 km/h 80 % 0 in /  0.0 mm
09:27 52 °F /  11.1 °C 45.7 °F /  7.6 °C 30.2 in /  1023.9 hPa NNE 3 mph /  4.8 km/h 7 mph /  11.3 km/h 79 % 0 in /  0.0 mm
09:32 52 °F /  11.1 °C 45.3 °F /  7.4 °C 30.3 in /  1024.3 hPa NNE 1 mph /  1.6 km/h 7 mph /  11.3 km/h 78 % 0 in /  0.0 mm
09:37 52.2 °F /  11.2 °C 45.5 °F /  7.5 °C 30.3 in /  1024.3 hPa NE 2 mph /  3.2 km/h 5 mph /  8.0 km/h 78 % 0 in /  0.0 mm
09:42 52.3 °F /  11.3 °C 45.7 °F /  7.6 °C 30.3 in /  1024.3 hPa North 1 mph /  1.6 km/h 6 mph /  9.7 km/h 78 % 0 in /  0.0 mm
09:47 52.9 °F /  11.6 °C 46.2 °F /  7.9 °C 30.3 in /  1024.3 hPa East 2 mph /  3.2 km/h 6 mph /  9.7 km/h 78 % 0 in /  0.0 mm
09:52 53.2 °F /  11.8 °C 46.6 °F /  8.1 °C 30.3 in /  1024.3 hPa ESE 2 mph /  3.2 km/h 5 mph /  8.0 km/h 78 % 0 in /  0.0 mm
09:57 53.6 °F /  12.0 °C 46.2 °F /  7.9 °C 30.3 in /  1024.3 hPa ENE 2 mph /  3.2 km/h 5 mph /  8.0 km/h 76 % 0 in /  0.0 mm
10:02 53.6 °F /  12.0 °C 46.2 °F /  7.9 °C 30.3 in /  1024.3 hPa East 3 mph /  4.8 km/h 5 mph /  8.0 km/h 76 % 0 in /  0.0 mm
10:07 54.1 °F /  12.3 °C 46.8 °F /  8.2 °C 30.3 in /  1024.3 hPa ENE 3 mph /  4.8 km/h 6 mph /  9.7 km/h 76 % 0 in /  0.0 mm
10:12 54.7 °F /  12.6 °C 47.3 °F /  8.5 °C 30.3 in /  1024.3 hPa East 1 mph /  1.6 km/h 6 mph /  9.7 km/h 76 % 0 in /  0.0 mm
10:17 55 °F /  12.8 °C 47.3 °F /  8.5 °C 30.3 in /  1024.3 hPa Calm   5 mph /  8.0 km/h 75 % 0 in /  0.0 mm
10:22 55.6 °F /  13.1 °C 47.5 °F /  8.6 °C 30.3 in /  1024.3 hPa NNE 2 mph /  3.2 km/h 5 mph /  8.0 km/h 74 % 0 in /  0.0 mm
10:32 55.8 °F /  13.2 °C 46.9 °F /  8.3 °C 30.3 in /  1024.3 hPa ENE 3 mph /  4.8 km/h 5 mph /  8.0 km/h 72 % 0 in /  0.0 mm
10:42 56.5 °F /  13.6 °C 48 °F /  8.9 °C 30.3 in /  1024.3 hPa Calm   6 mph /  9.7 km/h 73 % 0 in /  0.0 mm
10:47 56.7 °F /  13.7 °C 47.7 °F /  8.7 °C 30.3 in /  1024.3 hPa ENE 4 mph /  6.4 km/h 6 mph /  9.7 km/h 72 % 0 in /  0.0 mm
10:52 56.8 °F /  13.8 °C 47.8 °F /  8.8 °C 30.3 in /  1024.3 hPa Calm   5 mph /  8.0 km/h 72 % 0 in /  0.0 mm
10:57 57.6 °F /  14.2 °C 48.2 °F /  9.0 °C 30.3 in /  1024.3 hPa ENE 2 mph /  3.2 km/h 5 mph /  8.0 km/h 71 % 0 in /  0.0 mm
11:02 57.7 °F /  14.3 °C 48.4 °F /  9.1 °C 30.3 in /  1024.3 hPa NNE 1 mph /  1.6 km/h 5 mph /  8.0 km/h 71 % 0 in /  0.0 mm
11:07 58.3 °F /  14.6 °C 48.2 °F /  9.0 °C 30.3 in /  1024.3 hPa ENE 1 mph /  1.6 km/h 5 mph /  8.0 km/h 69 % 0 in /  0.0 mm
11:12 58.5 °F /  14.7 °C 48.7 °F /  9.3 °C 30.3 in /  1024.3 hPa NNE 3 mph /  4.8 km/h 6 mph /  9.7 km/h 70 % 0 in /  0.0 mm
11:17 58.8 °F /  14.9 °C 48.7 °F /  9.3 °C 30.3 in /  1024.3 hPa ESE 3 mph /  4.8 km/h 6 mph /  9.7 km/h 69 % 0 in /  0.0 mm
11:22 59 °F /  15.0 °C 48.4 °F /  9.1 °C 30.3 in /  1024.3 hPa NE 2 mph /  3.2 km/h 6 mph /  9.7 km/h 68 % 0 in /  0.0 mm
11:32 60.1 °F /  15.6 °C 49.5 °F /  9.7 °C 30.3 in /  1024.3 hPa ESE 1 mph /  1.6 km/h 4 mph /  6.4 km/h 68 % 0 in /  0.0 mm
11:37 60.3 °F /  15.7 °C 48.9 °F /  9.4 °C 30.3 in /  1024.3 hPa ENE 3 mph /  4.8 km/h 5 mph /  8.0 km/h 66 % 0 in /  0.0 mm
11:42 60.4 °F /  15.8 °C 49.5 °F /  9.7 °C 30.3 in /  1024.3 hPa NE 2 mph /  3.2 km/h 5 mph /  8.0 km/h 67 % 0 in /  0.0 mm
11:47 60.8 °F /  16.0 °C 49.5 °F /  9.7 °C 30.3 in /  1024.3 hPa Calm   5 mph /  8.0 km/h 66 % 0 in /  0.0 mm
11:52 61.2 °F /  16.2 °C 49.3 °F /  9.6 °C 30.3 in /  1024.3 hPa East 3 mph /  4.8 km/h 4 mph /  6.4 km/h 65 % 0 in /  0.0 mm
11:57 61.5 °F /  16.4 °C 48 °F /  8.9 °C 30.3 in /  1024.3 hPa SE 4 mph /  6.4 km/h 5 mph /  8.0 km/h 61 % 0 in /  0.0 mm
12:02 62.2 °F /  16.8 °C 50 °F /  10.0 °C 30.3 in /  1024.3 hPa SE 3 mph /  4.8 km/h 6 mph /  9.7 km/h 64 % 0 in /  0.0 mm
12:07 63 °F /  17.2 °C 48.9 °F /  9.4 °C 30.3 in /  1024.3 hPa SSE 1 mph /  1.6 km/h 6 mph /  9.7 km/h 60 % 0 in /  0.0 mm
12:12 63 °F /  17.2 °C 48.4 °F /  9.1 °C 30.3 in /  1024.3 hPa Calm   6 mph /  9.7 km/h 59 % 0 in /  0.0 mm
12:17 63.3 °F /  17.4 °C 49.3 °F /  9.6 °C 30.3 in /  1024.3 hPa ENE 3 mph /  4.8 km/h 4 mph /  6.4 km/h 60 % 0 in /  0.0 mm
12:22 63.3 °F /  17.4 °C 50 °F /  10.0 °C 30.3 in /  1024.3 hPa NNE 2 mph /  3.2 km/h 4 mph /  6.4 km/h 62 % 0 in /  0.0 mm
12:27 63 °F /  17.2 °C 48.4 °F /  9.1 °C 30.3 in /  1024.3 hPa ENE 1 mph /  1.6 km/h 5 mph /  8.0 km/h 59 % 0 in /  0.0 mm
12:32 63.1 °F /  17.3 °C 48.6 °F /  9.2 °C 30.3 in /  1024.3 hPa East 2 mph /  3.2 km/h 5 mph /  8.0 km/h 59 % 0 in /  0.0 mm
12:42 63.3 °F /  17.4 °C 48.7 °F /  9.3 °C 30.3 in /  1024.3 hPa East 3 mph /  4.8 km/h 6 mph /  9.7 km/h 59 % 0 in /  0.0 mm
12:47 63.1 °F /  17.3 °C 49.1 °F /  9.5 °C 30.2 in /  1023.9 hPa ENE 3 mph /  4.8 km/h 6 mph /  9.7 km/h 60 % 0 in /  0.0 mm
12:52 63.3 °F /  17.4 °C 48.7 °F /  9.3 °C 30.2 in /  1023.9 hPa ENE 4 mph /  6.4 km/h 7 mph /  11.3 km/h 59 % 0 in /  0.0 mm
13:02 63.7 °F /  17.6 °C 48.6 °F /  9.2 °C 30.2 in /  1023.9 hPa NE 3 mph /  4.8 km/h 7 mph /  11.3 km/h 58 % 0 in /  0.0 mm
13:07 64 °F /  17.8 °C 48.9 °F /  9.4 °C 30.2 in /  1023.9 hPa ESE 1 mph /  1.6 km/h 8 mph /  12.9 km/h 58 % 0 in /  0.0 mm
13:12 64.4 °F /  18.0 °C 49.3 °F /  9.6 °C 30.2 in /  1023.9 hPa ENE 5 mph /  8.0 km/h 8 mph /  12.9 km/h 58 % 0 in /  0.0 mm
13:17 64.6 °F /  18.1 °C 48.9 °F /  9.4 °C 30.2 in /  1023.9 hPa Calm   8 mph /  12.9 km/h 57 % 0 in /  0.0 mm
13:22 65.1 °F /  18.4 °C 50 °F /  10.0 °C 30.2 in /  1023.9 hPa North 4 mph /  6.4 km/h 6 mph /  9.7 km/h 58 % 0 in /  0.0 mm
13:27 65.5 °F /  18.6 °C 48.9 °F /  9.4 °C 30.2 in /  1023.9 hPa NNE 4 mph /  6.4 km/h 7 mph /  11.3 km/h 55 % 0 in /  0.0 mm
13:32 65.5 °F /  18.6 °C 49.3 °F /  9.6 °C 30.2 in /  1023.6 hPa North 2 mph /  3.2 km/h 7 mph /  11.3 km/h 56 % 0 in /  0.0 mm
13:37 65.8 °F /  18.8 °C 48.7 °F /  9.3 °C 30.2 in /  1023.6 hPa NE 3 mph /  4.8 km/h 7 mph /  11.3 km/h 54 % 0 in /  0.0 mm
13:42 66 °F /  18.9 °C 48.9 °F /  9.4 °C 30.2 in /  1023.6 hPa ENE 2 mph /  3.2 km/h 7 mph /  11.3 km/h 54 % 0 in /  0.0 mm
13:47 66.4 °F /  19.1 °C 48.2 °F /  9.0 °C 30.2 in /  1023.6 hPa East 6 mph /  9.7 km/h 6 mph /  9.7 km/h 52 % 0 in /  0.0 mm
13:52 66.4 °F /  19.1 °C 49.3 °F /  9.6 °C 30.2 in /  1023.6 hPa East 4 mph /  6.4 km/h 7 mph /  11.3 km/h 54 % 0 in /  0.0 mm
13:57 66.2 °F /  19.0 °C 47.5 °F /  8.6 °C 30.2 in /  1023.2 hPa NNE 7 mph /  11.3 km/h 8 mph /  12.9 km/h 51 % 0 in /  0.0 mm
14:02 66.6 °F /  19.2 °C 49.8 °F /  9.9 °C 30.2 in /  1023.2 hPa NE 5 mph /  8.0 km/h 8 mph /  12.9 km/h 55 % 0 in /  0.0 mm
14:07 66.7 °F /  19.3 °C 48.6 °F /  9.2 °C 30.2 in /  1023.2 hPa ESE 1 mph /  1.6 km/h 8 mph /  12.9 km/h 52 % 0 in /  0.0 mm
14:12 67.1 °F /  19.5 °C 48.4 °F /  9.1 °C 30.2 in /  1023.2 hPa ENE 4 mph /  6.4 km/h 7 mph /  11.3 km/h 51 % 0 in /  0.0 mm
14:17 67.1 °F /  19.5 °C 48.9 °F /  9.4 °C 30.2 in /  1023.2 hPa East 3 mph /  4.8 km/h 7 mph /  11.3 km/h 52 % 0 in /  0.0 mm
14:22 67.1 °F /  19.5 °C 48.9 °F /  9.4 °C 30.2 in /  1023.2 hPa NNE 3 mph /  4.8 km/h 7 mph /  11.3 km/h 52 % 0 in /  0.0 mm
14:27 67.3 °F /  19.6 °C 49.6 °F /  9.8 °C 30.2 in /  1023.2 hPa NE 2 mph /  3.2 km/h 9 mph /  14.5 km/h 53 % 0 in /  0.0 mm
14:32 67.6 °F /  19.8 °C 49.8 °F /  9.9 °C 30.2 in /  1023.2 hPa East 2 mph /  3.2 km/h 9 mph /  14.5 km/h 53 % 0 in /  0.0 mm
14:37 67.8 °F /  19.9 °C 49.6 °F /  9.8 °C 30.2 in /  1023.2 hPa ENE 3 mph /  4.8 km/h 8 mph /  12.9 km/h 52 % 0 in /  0.0 mm
14:42 67.8 °F /  19.9 °C 49.1 °F /  9.5 °C 30.2 in /  1022.9 hPa NE 4 mph /  6.4 km/h 8 mph /  12.9 km/h 51 % 0 in /  0.0 mm
14:47 67.8 °F /  19.9 °C 49.1 °F /  9.5 °C 30.2 in /  1023.2 hPa NNW 2 mph /  3.2 km/h 8 mph /  12.9 km/h 51 % 0 in /  0.0 mm
14:52 68 °F /  20.0 °C 49.3 °F /  9.6 °C 30.2 in /  1022.9 hPa NNE 3 mph /  4.8 km/h 8 mph /  12.9 km/h 51 % 0 in /  0.0 mm
14:57 68.4 °F /  20.2 °C 49.5 °F /  9.7 °C 30.2 in /  1022.9 hPa North 1 mph /  1.6 km/h 7 mph /  11.3 km/h 51 % 0 in /  0.0 mm
15:02 69.1 °F /  20.6 °C 49.1 °F /  9.5 °C 30.2 in /  1022.9 hPa SE 1 mph /  1.6 km/h 5 mph /  8.0 km/h 49 % 0 in /  0.0 mm
15:07 68.7 °F /  20.4 °C 48.7 °F /  9.3 °C 30.2 in /  1022.9 hPa East 2 mph /  3.2 km/h 6 mph /  9.7 km/h 49 % 0 in /  0.0 mm
15:12 68.9 °F /  20.5 °C 49.5 °F /  9.7 °C 30.2 in /  1022.9 hPa East 6 mph /  9.7 km/h 6 mph /  9.7 km/h 50 % 0 in /  0.0 mm
15:17 68.7 °F /  20.4 °C 47.7 °F /  8.7 °C 30.2 in /  1022.6 hPa East 2 mph /  3.2 km/h 8 mph /  12.9 km/h 47 % 0 in /  0.0 mm
15:22 69.3 °F /  20.7 °C 49.8 °F /  9.9 °C 30.2 in /  1022.6 hPa SE 1 mph /  1.6 km/h 8 mph /  12.9 km/h 50 % 0 in /  0.0 mm
15:27 69.4 °F /  20.8 °C 49.5 °F /  9.7 °C 30.2 in /  1022.6 hPa ESE 1 mph /  1.6 km/h 8 mph /  12.9 km/h 49 % 0 in /  0.0 mm
15:32 69.3 °F /  20.7 °C 48.7 °F /  9.3 °C 30.2 in /  1022.6 hPa East 4 mph /  6.4 km/h 6 mph /  9.7 km/h 48 % 0 in /  0.0 mm
15:37 69.4 °F /  20.8 °C 48.9 °F /  9.4 °C 30.2 in /  1022.6 hPa ENE 1 mph /  1.6 km/h 7 mph /  11.3 km/h 48 % 0 in /  0.0 mm
15:42 69.6 °F /  20.9 °C 47.3 °F /  8.5 °C 30.2 in /  1022.6 hPa ENE 2 mph /  3.2 km/h 7 mph /  11.3 km/h 45 % 0 in /  0.0 mm
15:47 69.6 °F /  20.9 °C 46.8 °F /  8.2 °C 30.2 in /  1022.6 hPa NE 2 mph /  3.2 km/h 7 mph /  11.3 km/h 44 % 0 in /  0.0 mm
15:52 70 °F /  21.1 °C 48.2 °F /  9.0 °C 30.2 in /  1022.6 hPa ENE 2 mph /  3.2 km/h 5 mph /  8.0 km/h 46 % 0 in /  0.0 mm
15:57 70.3 °F /  21.3 °C 48.6 °F /  9.2 °C 30.2 in /  1022.2 hPa East 4 mph /  6.4 km/h 5 mph /  8.0 km/h 46 % 0 in /  0.0 mm
16:02 70.5 °F /  21.4 °C 47.5 °F /  8.6 °C 30.2 in /  1022.2 hPa NNW 1 mph /  1.6 km/h 8 mph /  12.9 km/h 44 % 0 in /  0.0 mm
16:07 70.5 °F /  21.4 °C 46.9 °F /  8.3 °C 30.2 in /  1022.2 hPa ENE 3 mph /  4.8 km/h 8 mph /  12.9 km/h 43 % 0 in /  0.0 mm
16:12 70.3 °F /  21.3 °C 48.6 °F /  9.2 °C 30.2 in /  1022.2 hPa NE 1 mph /  1.6 km/h 8 mph /  12.9 km/h 46 % 0 in /  0.0 mm
16:17 70.3 °F /  21.3 °C 48 °F /  8.9 °C 30.2 in /  1022.2 hPa NNE 4 mph /  6.4 km/h 8 mph /  12.9 km/h 45 % 0 in /  0.0 mm
16:22 70.2 °F /  21.2 °C 47.8 °F /  8.8 °C 30.2 in /  1022.2 hPa ENE 4 mph /  6.4 km/h 10 mph /  16.1 km/h 45 % 0 in /  0.0 mm
16:27 70.2 °F /  21.2 °C 47.8 °F /  8.8 °C 30.2 in /  1022.2 hPa NE 4 mph /  6.4 km/h 10 mph /  16.1 km/h 45 % 0 in /  0.0 mm
16:32 70.7 °F /  21.5 °C 47.1 °F /  8.4 °C 30.2 in /  1022.2 hPa NE 4 mph /  6.4 km/h 8 mph /  12.9 km/h 43 % 0 in /  0.0 mm
16:37 70.5 °F /  21.4 °C 46.9 °F /  8.3 °C 30.2 in /  1022.2 hPa NE 4 mph /  6.4 km/h 8 mph /  12.9 km/h 43 % 0 in /  0.0 mm
16:42 70.5 °F /  21.4 °C 47.5 °F /  8.6 °C 30.2 in /  1022.2 hPa Calm   8 mph /  12.9 km/h 44 % 0 in /  0.0 mm
16:47 71.1 °F /  21.7 °C 48 °F /  8.9 °C 30.2 in /  1022.2 hPa East 3 mph /  4.8 km/h 8 mph /  12.9 km/h 44 % 0 in /  0.0 mm
16:52 70.9 °F /  21.6 °C 49.6 °F /  9.8 °C 30.2 in /  1021.9 hPa ENE 3 mph /  4.8 km/h 6 mph /  9.7 km/h 47 % 0 in /  0.0 mm
16:57 70.7 °F /  21.5 °C 47.1 °F /  8.4 °C 30.2 in /  1021.9 hPa ENE 4 mph /  6.4 km/h 8 mph /  12.9 km/h 43 % 0 in /  0.0 mm
17:02 70.7 °F /  21.5 °C 48.9 °F /  9.4 °C 30.2 in /  1021.9 hPa NNE 6 mph /  9.7 km/h 8 mph /  12.9 km/h 46 % 0 in /  0.0 mm
17:07 70.9 °F /  21.6 °C 47.8 °F /  8.8 °C 30.2 in /  1021.9 hPa NE 3 mph /  4.8 km/h 8 mph /  12.9 km/h 44 % 0 in /  0.0 mm
17:12 70.9 °F /  21.6 °C 47.3 °F /  8.5 °C 30.2 in /  1021.9 hPa NE 3 mph /  4.8 km/h 8 mph /  12.9 km/h 43 % 0 in /  0.0 mm
17:17 71.1 °F /  21.7 °C 48 °F /  8.9 °C 30.2 in /  1021.9 hPa NE 3 mph /  4.8 km/h 6 mph /  9.7 km/h 44 % 0 in /  0.0 mm
17:22 71.1 °F /  21.7 °C 48.6 °F /  9.2 °C 30.2 in /  1021.9 hPa NNE 7 mph /  11.3 km/h 12 mph /  19.3 km/h 45 % 0 in /  0.0 mm
17:27 70.9 °F /  21.6 °C 47.8 °F /  8.8 °C 30.2 in /  1021.9 hPa NNE 7 mph /  11.3 km/h 12 mph /  19.3 km/h 44 % 0 in /  0.0 mm
17:32 70.5 °F /  21.4 °C 46.4 °F /  8.0 °C 30.2 in /  1021.9 hPa North 3 mph /  4.8 km/h 12 mph /  19.3 km/h 42 % 0 in /  0.0 mm
17:37 71.1 °F /  21.7 °C 48 °F /  8.9 °C 30.2 in /  1021.6 hPa Calm   9 mph /  14.5 km/h 44 % 0 in /  0.0 mm
17:42 71.2 °F /  21.8 °C 48.2 °F /  9.0 °C 30.2 in /  1021.6 hPa East 5 mph /  8.0 km/h 9 mph /  14.5 km/h 44 % 0 in /  0.0 mm
17:47 71.2 °F /  21.8 °C 50 °F /  10.0 °C 30.2 in /  1021.6 hPa East 6 mph /  9.7 km/h 7 mph /  11.3 km/h 47 % 0 in /  0.0 mm
17:52 71.2 °F /  21.8 °C 47.7 °F /  8.7 °C 30.2 in /  1021.6 hPa East 3 mph /  4.8 km/h 7 mph /  11.3 km/h 43 % 0 in /  0.0 mm
17:57 71.4 °F /  21.9 °C 48.9 °F /  9.4 °C 30.2 in /  1021.6 hPa NE 1 mph /  1.6 km/h 7 mph /  11.3 km/h 45 % 0 in /  0.0 mm
18:02 71.6 °F /  22.0 °C 49.1 °F /  9.5 °C 30.2 in /  1021.6 hPa NE 3 mph /  4.8 km/h 7 mph /  11.3 km/h 45 % 0 in /  0.0 mm
18:07 71.4 °F /  21.9 °C 47.8 °F /  8.8 °C 30.2 in /  1021.6 hPa North 3 mph /  4.8 km/h 7 mph /  11.3 km/h 43 % 0 in /  0.0 mm
18:12 71.2 °F /  21.8 °C 47.7 °F /  8.7 °C 30.2 in /  1021.6 hPa ENE 7 mph /  11.3 km/h 7 mph /  11.3 km/h 43 % 0 in /  0.0 mm
18:17 71.1 °F /  21.7 °C 46.8 °F /  8.2 °C 30.2 in /  1021.6 hPa NE 3 mph /  4.8 km/h 8 mph /  12.9 km/h 42 % 0 in /  0.0 mm
18:22 71.2 °F /  21.8 °C 46.9 °F /  8.3 °C 30.2 in /  1021.6 hPa ENE 1 mph /  1.6 km/h 8 mph /  12.9 km/h 42 % 0 in /  0.0 mm
18:27 71.4 °F /  21.9 °C 47.8 °F /  8.8 °C 30.2 in /  1021.6 hPa East 2 mph /  3.2 km/h 8 mph /  12.9 km/h 43 % 0 in /  0.0 mm
18:32 71.2 °F /  21.8 °C 48.7 °F /  9.3 °C 30.2 in /  1021.6 hPa East 4 mph /  6.4 km/h 8 mph /  12.9 km/h 45 % 0 in /  0.0 mm
18:37 70.9 °F /  21.6 °C 49.6 °F /  9.8 °C 30.2 in /  1021.6 hPa ENE 4 mph /  6.4 km/h 6 mph /  9.7 km/h 47 % 0 in /  0.0 mm
18:42 70.7 °F /  21.5 °C 48.9 °F /  9.4 °C 30.2 in /  1021.6 hPa ENE 2 mph /  3.2 km/h 6 mph /  9.7 km/h 46 % 0 in /  0.0 mm
18:47 70.9 °F /  21.6 °C 49.1 °F /  9.5 °C 30.2 in /  1021.6 hPa NE 2 mph /  3.2 km/h 5 mph /  8.0 km/h 46 % 0 in /  0.0 mm
18:52 70.9 °F /  21.6 °C 48.6 °F /  9.2 °C 30.2 in /  1021.6 hPa NNE 3 mph /  4.8 km/h 5 mph /  8.0 km/h 45 % 0 in /  0.0 mm
18:57 70.9 °F /  21.6 °C 48.6 °F /  9.2 °C 30.2 in /  1021.6 hPa NE 4 mph /  6.4 km/h 4 mph /  6.4 km/h 45 % 0 in /  0.0 mm
19:07 70.5 °F /  21.4 °C 48.2 °F /  9.0 °C 30.2 in /  1021.6 hPa NE 5 mph /  8.0 km/h 7 mph /  11.3 km/h 45 % 0 in /  0.0 mm
19:12 70.3 °F /  21.3 °C 47.5 °F /  8.6 °C 30.2 in /  1021.6 hPa NNW 3 mph /  4.8 km/h 7 mph /  11.3 km/h 44 % 0 in /  0.0 mm
19:17 70.2 °F /  21.2 °C 48.4 °F /  9.1 °C 30.2 in /  1021.6 hPa NE 3 mph /  4.8 km/h 7 mph /  11.3 km/h 46 % 0 in /  0.0 mm
19:22 70 °F /  21.1 °C 48.2 °F /  9.0 °C 30.2 in /  1021.6 hPa NNE 3 mph /  4.8 km/h 7 mph /  11.3 km/h 46 % 0 in /  0.0 mm
19:27 70 °F /  21.1 °C 48.7 °F /  9.3 °C 30.2 in /  1021.6 hPa NE 1 mph /  1.6 km/h 7 mph /  11.3 km/h 47 % 0 in /  0.0 mm
19:32 69.6 °F /  20.9 °C 48.6 °F /  9.2 °C 30.2 in /  1021.6 hPa NNE 4 mph /  6.4 km/h 5 mph /  8.0 km/h 47 % 0 in /  0.0 mm
19:37 69.4 °F /  20.8 °C 47.8 °F /  8.8 °C 30.2 in /  1021.6 hPa NNE 3 mph /  4.8 km/h 6 mph /  9.7 km/h 46 % 0 in /  0.0 mm
19:42 69.4 °F /  20.8 °C 47.8 °F /  8.8 °C 30.2 in /  1021.6 hPa NE 5 mph /  8.0 km/h 6 mph /  9.7 km/h 46 % 0 in /  0.0 mm
19:47 69.1 °F /  20.6 °C 48 °F /  8.9 °C 30.2 in /  1021.6 hPa NE 5 mph /  8.0 km/h 6 mph /  9.7 km/h 47 % 0 in /  0.0 mm
19:52 68.7 °F /  20.4 °C 47.1 °F /  8.4 °C 30.2 in /  1021.6 hPa NE 4 mph /  6.4 km/h 6 mph /  9.7 km/h 46 % 0 in /  0.0 mm
19:57 68.5 °F /  20.3 °C 46.9 °F /  8.3 °C 30.2 in /  1021.6 hPa NE 4 mph /  6.4 km/h 6 mph /  9.7 km/h 46 % 0 in /  0.0 mm
20:02 68.4 °F /  20.2 °C 46.8 °F /  8.2 °C 30.2 in /  1021.6 hPa NE 4 mph /  6.4 km/h 6 mph /  9.7 km/h 46 % 0 in /  0.0 mm
20:07 68.2 °F /  20.1 °C 47.1 °F /  8.4 °C 30.2 in /  1021.6 hPa NE 3 mph /  4.8 km/h 6 mph /  9.7 km/h 47 % 0 in /  0.0 mm
20:12 67.6 °F /  19.8 °C 47.8 °F /  8.8 °C 30.2 in /  1021.6 hPa NE 2 mph /  3.2 km/h 5 mph /  8.0 km/h 49 % 0 in /  0.0 mm
20:17 67.3 °F /  19.6 °C 47.5 °F /  8.6 °C 30.2 in /  1021.6 hPa NE 3 mph /  4.8 km/h 5 mph /  8.0 km/h 49 % 0 in /  0.0 mm
20:22 66.6 °F /  19.2 °C 47.8 °F /  8.8 °C 30.2 in /  1021.6 hPa NE 2 mph /  3.2 km/h 5 mph /  8.0 km/h 51 % 0 in /  0.0 mm
20:27 65.8 °F /  18.8 °C 48.7 °F /  9.3 °C 30.2 in /  1021.6 hPa NNE 4 mph /  6.4 km/h 5 mph /  8.0 km/h 54 % 0 in /  0.0 mm
20:32 65.5 °F /  18.6 °C 49.3 °F /  9.6 °C 30.2 in /  1021.6 hPa NE 5 mph /  8.0 km/h 6 mph /  9.7 km/h 56 % 0 in /  0.0 mm
20:37 65.5 °F /  18.6 °C 49.3 °F /  9.6 °C 30.2 in /  1021.6 hPa NE 5 mph /  8.0 km/h 7 mph /  11.3 km/h 56 % 0 in /  0.0 mm
20:42 65.7 °F /  18.7 °C 49.5 °F /  9.7 °C 30.2 in /  1021.6 hPa NE 6 mph /  9.7 km/h 7 mph /  11.3 km/h 56 % 0 in /  0.0 mm
20:47 65.1 °F /  18.4 °C 49.1 °F /  9.5 °C 30.2 in /  1021.6 hPa NNE 4 mph /  6.4 km/h 7 mph /  11.3 km/h 56 % 0 in /  0.0 mm
20:52 64.8 °F /  18.2 °C 49.1 °F /  9.5 °C 30.2 in /  1021.9 hPa NE 5 mph /  8.0 km/h 7 mph /  11.3 km/h 57 % 0 in /  0.0 mm
20:57 64.6 °F /  18.1 °C 49.5 °F /  9.7 °C 30.2 in /  1021.9 hPa NNE 5 mph /  8.0 km/h 7 mph /  11.3 km/h 58 % 0 in /  0.0 mm
21:02 63.5 °F /  17.5 °C 48.9 °F /  9.4 °C 30.2 in /  1021.9 hPa North 4 mph /  6.4 km/h 6 mph /  9.7 km/h 59 % 0 in /  0.0 mm
21:07 62.6 °F /  17.0 °C 48.9 °F /  9.4 °C 30.2 in /  1021.9 hPa North 2 mph /  3.2 km/h 6 mph /  9.7 km/h 61 % 0 in /  0.0 mm
21:12 62.2 °F /  16.8 °C 49.1 °F /  9.5 °C 30.2 in /  1021.9 hPa NNE 2 mph /  3.2 km/h 5 mph /  8.0 km/h 62 % 0 in /  0.0 mm
21:17 61.7 °F /  16.5 °C 48.9 °F /  9.4 °C 30.2 in /  1021.9 hPa NNE 2 mph /  3.2 km/h 5 mph /  8.0 km/h 63 % 0 in /  0.0 mm
21:22 61.2 °F /  16.2 °C 48.9 °F /  9.4 °C 30.2 in /  1021.9 hPa NE 2 mph /  3.2 km/h 5 mph /  8.0 km/h 64 % 0 in /  0.0 mm
21:27 61 °F /  16.1 °C 48.7 °F /  9.3 °C 30.2 in /  1021.9 hPa NE 3 mph /  4.8 km/h 7 mph /  11.3 km/h 64 % 0 in /  0.0 mm
21:32 61.3 °F /  16.3 °C 48.6 °F /  9.2 °C 30.2 in /  1021.9 hPa NE 4 mph /  6.4 km/h 7 mph /  11.3 km/h 63 % 0 in /  0.0 mm
21:42 61 °F /  16.1 °C 48.4 °F /  9.1 °C 30.2 in /  1022.2 hPa NNE 3 mph /  4.8 km/h 7 mph /  11.3 km/h 63 % 0 in /  0.0 mm
21:47 61 °F /  16.1 °C 48.4 °F /  9.1 °C 30.2 in /  1022.2 hPa NNE 2 mph /  3.2 km/h 6 mph /  9.7 km/h 63 % 0 in /  0.0 mm
21:52 60.4 °F /  15.8 °C 48.2 °F /  9.0 °C 30.2 in /  1022.2 hPa NE 2 mph /  3.2 km/h 5 mph /  8.0 km/h 64 % 0 in /  0.0 mm
21:57 60.1 °F /  15.6 °C 48.2 °F /  9.0 °C 30.2 in /  1022.2 hPa North 3 mph /  4.8 km/h 5 mph /  8.0 km/h 65 % 0 in /  0.0 mm
22:02 59.7 °F /  15.4 °C 48 °F /  8.9 °C 30.2 in /  1022.2 hPa Calm   5 mph /  8.0 km/h 65 % 0 in /  0.0 mm
22:07 59.5 °F /  15.3 °C 47.8 °F /  8.8 °C 30.2 in /  1022.2 hPa NNE 1 mph /  1.6 km/h 5 mph /  8.0 km/h 65 % 0 in /  0.0 mm
22:12 59.5 °F /  15.3 °C 47.8 °F /  8.8 °C 30.2 in /  1022.2 hPa NNE 1 mph /  1.6 km/h 4 mph /  6.4 km/h 65 % 0 in /  0.0 mm
22:17 59.5 °F /  15.3 °C 47.8 °F /  8.8 °C 30.2 in /  1022.2 hPa Calm   4 mph /  6.4 km/h 65 % 0 in /  0.0 mm
22:22 59.4 °F /  15.2 °C 47.7 °F /  8.7 °C 30.2 in /  1022.2 hPa Calm   4 mph /  6.4 km/h 65 % 0 in /  0.0 mm
22:27 59.2 °F /  15.1 °C 47.8 °F /  8.8 °C 30.2 in /  1022.2 hPa NNW 1 mph /  1.6 km/h 2 mph /  3.2 km/h 66 % 0 in /  0.0 mm
22:32 58.8 °F /  14.9 °C 47.5 °F /  8.6 °C 30.2 in /  1022.2 hPa Calm   2 mph /  3.2 km/h 66 % 0 in /  0.0 mm
22:37 58.6 °F /  14.8 °C 47.7 °F /  8.7 °C 30.2 in /  1022.2 hPa Calm   2 mph /  3.2 km/h 67 % 0 in /  0.0 mm
22:42 58.3 °F /  14.6 °C 47.3 °F /  8.5 °C 30.2 in /  1022.2 hPa North 1 mph /  1.6 km/h 2 mph /  3.2 km/h 67 % 0 in /  0.0 mm
22:52 57.9 °F /  14.4 °C 47.5 °F /  8.6 °C 30.2 in /  1022.2 hPa North 2 mph /  3.2 km/h 4 mph /  6.4 km/h 68 % 0 in /  0.0 mm
22:57 57.9 °F /  14.4 °C 47.5 °F /  8.6 °C 30.2 in /  1022.2 hPa NE 2 mph /  3.2 km/h 4 mph /  6.4 km/h 68 % 0 in /  0.0 mm
23:02 57.7 °F /  14.3 °C 47.7 °F /  8.7 °C 30.2 in /  1022.2 hPa Calm   3 mph /  4.8 km/h 69 % 0 in /  0.0 mm
23:07 57.6 °F /  14.2 °C 47.5 °F /  8.6 °C 30.2 in /  1022.2 hPa ENE 1 mph /  1.6 km/h 4 mph /  6.4 km/h 69 % 0 in /  0.0 mm
23:12 57.6 °F /  14.2 °C 47.5 °F /  8.6 °C 30.2 in /  1022.2 hPa North 2 mph /  3.2 km/h 4 mph /  6.4 km/h 69 % 0 in /  0.0 mm
23:17 57.4 °F /  14.1 °C 47.3 °F /  8.5 °C 30.2 in /  1022.2 hPa NNE 2 mph /  3.2 km/h 4 mph /  6.4 km/h 69 % 0 in /  0.0 mm
23:22 57.4 °F /  14.1 °C 47.3 °F /  8.5 °C 30.2 in /  1022.2 hPa North 4 mph /  6.4 km/h 4 mph /  6.4 km/h 69 % 0 in /  0.0 mm
23:27 57.4 °F /  14.1 °C 47.3 °F /  8.5 °C 30.2 in /  1022.2 hPa NE 4 mph /  6.4 km/h 7 mph /  11.3 km/h 69 % 0 in /  0.0 mm
23:32 57.4 °F /  14.1 °C 47.3 °F /  8.5 °C 30.2 in /  1022.2 hPa NNE 3 mph /  4.8 km/h 7 mph /  11.3 km/h 69 % 0 in /  0.0 mm
23:37 57.4 °F /  14.1 °C 47.3 °F /  8.5 °C 30.2 in /  1022.2 hPa NW 1 mph /  1.6 km/h 7 mph /  11.3 km/h 69 % 0 in /  0.0 mm
23:42 57.2 °F /  14.0 °C 47.1 °F /  8.4 °C 30.2 in /  1022.2 hPa NE 1 mph /  1.6 km/h 5 mph /  8.0 km/h 69 % 0 in /  0.0 mm
23:47 57.2 °F /  14.0 °C 47.1 °F /  8.4 °C 30.2 in /  1022.6 hPa Calm   5 mph /  8.0 km/h 69 % 0 in /  0.0 mm
23:52 56.7 °F /  13.7 °C 46.9 °F /  8.3 °C 30.2 in /  1022.6 hPa WNW 1 mph /  1.6 km/h 5 mph /  8.0 km/h 70 % 0 in /  0.0 mm
23:57 56.1 °F /  13.4 °C 46.8 °F /  8.2 °C 30.2 in /  1022.6 hPa NW 1 mph /  1.6 km/h 4 mph /  6.4 km/h 71 % 0 in /  0.0 mm
Meteo18
Compliments of Weather Underground - 4 mb

Script developed by  Jim McMurry - jmcmurry@mwt.net Adapted for the template by  Wim van der Kuil - Leuven-Template.eu

You find our weather info also at:

European Weather Network

Weather Underground

Equipment we use:

Weather-station
Davis Vue

Weather-program
Meteohub

Weather-server
Raspberry PI 2 B+

Provider
1 and 1

Davis Vue

Meteohub

Raspberry PI 2 B+

1 and 1